createdAt,value
2016-12-18T09:54:21.754Z,8.52
2016-12-18T09:55:21.778Z,8.51
2016-12-18T09:56:21.784Z,8.6
2016-12-18T09:57:21.801Z,8.55
2016-12-18T09:58:21.799Z,8.52
2016-12-18T09:59:21.807Z,8.66
2016-12-18T10:00:21.857Z,8.7
2016-12-18T10:01:21.869Z,8.81
2016-12-18T10:02:21.903Z,8.99
2016-12-18T10:03:21.950Z,8.97
2016-12-18T10:04:21.934Z,9.08
2016-12-18T10:05:21.953Z,9.11
2016-12-18T10:06:21.947Z,9.19
2016-12-18T10:07:21.948Z,9.04
2016-12-18T10:08:21.952Z,9.04
2016-12-18T10:09:21.959Z,9.21
2016-12-18T10:10:21.980Z,9.26
2016-12-18T10:11:22.045Z,9.31
2016-12-18T10:12:22.011Z,9.26
2016-12-18T10:13:22.076Z,9.29
2016-12-18T10:14:22.081Z,9.18
2016-12-18T10:15:22.116Z,9.18
2016-12-18T10:16:22.131Z,9.25
2016-12-18T10:17:22.148Z,9.39
2016-12-18T10:18:22.148Z,9.46
2016-12-18T10:19:22.150Z,9.43
2016-12-18T10:20:22.164Z,9.54
2016-12-18T10:21:22.180Z,9.59
2016-12-18T10:22:22.190Z,9.65
2016-12-18T10:23:22.215Z,9.68
2016-12-18T10:24:22.306Z,9.79
2016-12-18T10:25:22.245Z,9.73
2016-12-18T10:26:22.269Z,9.89
2016-12-18T10:27:22.290Z,10.04
2016-12-18T10:28:22.301Z,9.98
2016-12-18T10:29:22.325Z,10.05
2016-12-18T10:30:22.336Z,9.99
2016-12-18T10:31:22.360Z,10.07
2016-12-18T10:32:22.377Z,10.09
2016-12-18T10:33:22.485Z,10.05
2016-12-18T10:34:22.410Z,10.01
2016-12-18T10:35:22.433Z,10.09
2016-12-18T10:36:22.447Z,10.15
2016-12-18T10:37:22.468Z,10.19
2016-12-18T10:38:22.494Z,10.2
2016-12-18T10:39:22.513Z,10.34
2016-12-18T10:40:22.727Z,10.42
2016-12-18T10:41:22.544Z,10.34
2016-12-18T10:42:22.588Z,10.48
2016-12-18T10:43:22.586Z,10.67
2016-12-18T10:44:22.637Z,10.61
2016-12-18T10:45:22.631Z,10.69
2016-12-18T10:46:24.245Z,10.6
2016-12-18T10:47:22.662Z,10.63
2016-12-18T10:48:22.681Z,10.49
2016-12-18T10:49:22.703Z,10.51
2016-12-18T10:50:22.730Z,10.56
2016-12-18T10:51:22.746Z,10.48
2016-12-18T10:52:22.756Z,10.59
2016-12-18T10:53:22.775Z,10.35
2016-12-18T10:54:22.795Z,10.33
2016-12-18T10:55:22.824Z,10.35
2016-12-18T10:56:22.837Z,10.31
2016-12-18T10:57:22.841Z,10.4
2016-12-18T10:58:22.881Z,10.42
2016-12-18T10:59:22.890Z,10.42
2016-12-18T11:00:22.914Z,10.46
2016-12-18T11:01:22.926Z,10.46
2016-12-18T11:02:22.944Z,10.4
2016-12-18T11:03:22.962Z,10.51
2016-12-18T11:04:22.989Z,10.61
2016-12-18T11:05:23.003Z,10.53
2016-12-18T11:06:23.022Z,10.38
2016-12-18T11:07:23.049Z,10.42
2016-12-18T11:08:23.064Z,10.57
2016-12-18T11:09:23.084Z,10.57
2016-12-18T11:10:23.101Z,10.6
2016-12-18T11:11:23.144Z,10.6
2016-12-18T11:12:23.143Z,10.67
2016-12-18T11:13:23.266Z,10.57
2016-12-18T11:14:23.209Z,10.68
2016-12-18T11:15:23.201Z,10.63
2016-12-18T11:16:23.206Z,10.6
2016-12-18T11:17:23.234Z,10.61
2016-12-18T11:18:23.254Z,10.57
2016-12-18T11:19:23.267Z,10.41
2016-12-18T11:20:23.287Z,10.51
2016-12-18T11:21:23.302Z,10.53
2016-12-18T11:22:23.327Z,10.53
2016-12-18T11:23:23.353Z,10.68
2016-12-18T11:24:23.367Z,10.74
2016-12-18T11:25:23.391Z,10.75
2016-12-18T11:26:23.401Z,10.61
2016-12-18T11:27:23.431Z,10.63
2016-12-18T11:28:24.352Z,10.63
2016-12-18T11:29:23.470Z,10.64
2016-12-18T11:30:23.481Z,10.59
2016-12-18T11:31:23.518Z,10.59
2016-12-18T11:32:23.630Z,10.6
2016-12-18T11:33:23.881Z,10.61
2016-12-18T11:34:23.697Z,10.57
2016-12-18T11:35:23.585Z,10.63
2016-12-18T11:36:23.634Z,10.78
2016-12-18T11:37:23.617Z,10.84
2016-12-18T11:38:23.636Z,10.9
2016-12-18T11:39:23.657Z,10.94
2016-12-18T11:40:23.673Z,11.04
2016-12-18T11:41:24.079Z,11.02
2016-12-18T11:42:24.268Z,11.19
2016-12-18T11:43:24.349Z,11.18
2016-12-18T11:44:23.755Z,11.15
2016-12-18T11:45:23.968Z,11.36
2016-12-18T11:46:24.604Z,11.35
2016-12-18T11:47:23.808Z,11.3
2016-12-18T11:48:23.836Z,11.43
2016-12-18T11:49:23.848Z,11.4
2016-12-18T11:50:23.861Z,11.12
2016-12-18T11:51:23.891Z,11.17
2016-12-18T11:52:23.932Z,11.32
2016-12-18T11:53:23.932Z,11.25
2016-12-18T11:54:23.942Z,11.47
2016-12-18T11:55:23.963Z,11.36
2016-12-18T11:56:23.975Z,11.45
2016-12-18T11:57:24.008Z,11.47
2016-12-18T11:58:24.060Z,11.55
2016-12-18T11:59:24.052Z,11.66
2016-12-18T12:00:24.075Z,11.57
2016-12-18T12:01:24.087Z,11.65
2016-12-18T12:02:24.105Z,11.6
2016-12-18T12:03:24.184Z,11.54
2016-12-18T12:04:24.142Z,11.35
2016-12-18T12:05:28.725Z,11.18
2016-12-18T12:06:24.180Z,11.05
2016-12-18T12:07:24.191Z,10.97
2016-12-18T12:08:24.220Z,11.08
2016-12-18T12:09:24.238Z,11.26
2016-12-18T12:10:24.255Z,11.33
2016-12-18T12:11:24.283Z,11.3
2016-12-18T12:12:24.296Z,11.45
2016-12-18T12:13:24.317Z,11.52
2016-12-18T12:14:24.331Z,11.45
2016-12-18T12:15:24.356Z,11.35
2016-12-18T12:16:24.424Z,11.29
2016-12-18T12:17:24.396Z,11.12
2016-12-18T12:18:24.421Z,11.1
2016-12-18T12:19:24.447Z,11
2016-12-18T12:20:24.454Z,11
2016-12-18T12:21:24.473Z,10.96
2016-12-18T12:22:24.485Z,10.97
2016-12-18T12:23:24.505Z,10.97
2016-12-18T12:24:24.528Z,10.93
2016-12-18T12:25:24.538Z,10.96
2016-12-18T12:26:24.587Z,11.05
2016-12-18T12:27:24.583Z,11.14
2016-12-18T12:28:24.691Z,11.4
2016-12-18T12:29:24.629Z,11.45
2016-12-18T12:30:24.639Z,11.51
2016-12-18T12:31:24.660Z,11.37
2016-12-18T12:32:25.116Z,11.44
2016-12-18T12:33:24.711Z,11.47
2016-12-18T12:34:24.727Z,11.52
2016-12-18T12:35:24.748Z,11.57
2016-12-18T12:36:24.765Z,11.47
2016-12-18T12:37:24.786Z,11.32
2016-12-18T12:38:24.797Z,11.44
2016-12-18T12:39:24.818Z,11.55
2016-12-18T12:40:24.835Z,11.57
2016-12-18T12:41:24.859Z,11.7
2016-12-18T12:42:24.883Z,11.57
2016-12-18T12:43:24.885Z,11.63
2016-12-18T12:44:24.911Z,11.57
2016-12-18T12:45:24.930Z,11.36
2016-12-18T12:46:24.951Z,11.26
2016-12-18T12:47:24.971Z,11.22
2016-12-18T12:48:25.446Z,11.12
2016-12-18T12:49:25.341Z,11.11
2016-12-18T12:50:25.197Z,11.19
2016-12-18T12:51:25.054Z,11.3
2016-12-18T12:52:25.067Z,11.14
2016-12-18T12:53:25.081Z,11.25
2016-12-18T12:54:25.111Z,11.35
2016-12-18T12:55:25.358Z,11.41
2016-12-18T12:56:25.285Z,11.57
2016-12-18T12:57:25.392Z,11.57
2016-12-18T12:58:25.191Z,11.66
2016-12-18T12:59:25.204Z,11.75
2016-12-18T13:00:25.226Z,11.91
2016-12-18T13:01:25.469Z,11.91
2016-12-18T13:02:25.268Z,11.99
2016-12-18T13:03:25.280Z,12.1
2016-12-18T13:04:25.311Z,11.97
2016-12-18T13:05:25.546Z,12.03
2016-12-18T13:06:25.338Z,12.1
2016-12-18T13:07:25.595Z,12.17
2016-12-18T13:08:25.373Z,12.18
2016-12-18T13:09:25.649Z,12.04
2016-12-18T13:10:25.546Z,11.99
2016-12-18T13:11:25.440Z,11.86
2016-12-18T13:12:25.461Z,11.81
2016-12-18T13:13:25.486Z,11.81
2016-12-18T13:14:25.511Z,11.75
2016-12-18T13:15:25.511Z,11.75
2016-12-18T13:16:25.530Z,11.73
2016-12-18T13:17:25.548Z,11.8
2016-12-18T13:18:25.574Z,11.63
2016-12-18T13:19:25.586Z,11.73
2016-12-18T13:20:25.617Z,11.75
2016-12-18T13:21:25.761Z,11.83
2016-12-18T13:22:25.656Z,11.72
2016-12-18T13:23:25.673Z,11.86
2016-12-18T13:24:25.687Z,11.88
2016-12-18T13:25:25.708Z,12.12
2016-12-18T13:26:25.734Z,12.36
2016-12-18T13:27:25.748Z,12.27
2016-12-18T13:28:25.763Z,12.4
2016-12-18T13:29:25.784Z,12.42
2016-12-18T13:30:25.805Z,12.15
2016-12-18T13:31:25.828Z,12.17
2016-12-18T13:32:25.861Z,12.27
2016-12-18T13:33:25.897Z,12.47
2016-12-18T13:34:25.895Z,12.6
2016-12-18T13:35:25.894Z,12.47
2016-12-18T13:36:25.928Z,11.97
2016-12-18T13:37:25.946Z,11.51
2016-12-18T13:38:25.961Z,11.08
2016-12-18T13:39:25.972Z,10.79
2016-12-18T13:40:26.000Z,10.46
2016-12-18T13:41:26.019Z,10.3
2016-12-18T13:42:26.070Z,10.04
2016-12-18T13:43:26.047Z,9.92
2016-12-18T13:44:26.076Z,9.68
2016-12-18T13:45:26.096Z,9.54
2016-12-18T13:46:26.118Z,9.47
2016-12-18T13:47:26.205Z,9.41
2016-12-18T13:48:26.186Z,9.34
2016-12-18T13:49:26.171Z,9.16
2016-12-18T13:50:26.218Z,9.06
2016-12-18T13:51:26.206Z,9.02
2016-12-18T13:52:26.224Z,8.92
2016-12-18T13:53:26.245Z,8.82
2016-12-18T13:54:26.262Z,8.78
2016-12-18T13:55:26.285Z,8.74
2016-12-18T13:56:26.293Z,8.78
2016-12-18T13:57:26.312Z,8.55
2016-12-18T13:58:26.326Z,8.58
2016-12-18T13:59:26.347Z,8.55
2016-12-18T14:00:26.364Z,8.51
2016-12-18T14:01:26.391Z,8.46
2016-12-18T14:02:26.410Z,8.49
2016-12-18T14:03:26.422Z,8.44
2016-12-18T14:04:26.434Z,8.34
2016-12-18T14:05:26.453Z,8.28
2016-12-18T14:06:26.467Z,8.27
2016-12-18T14:07:26.490Z,8.23
2016-12-18T14:08:26.540Z,8.24
2016-12-18T14:09:26.529Z,8.16
2016-12-18T14:10:26.551Z,8.13
2016-12-18T14:11:26.559Z,8.1
2016-12-18T14:12:26.576Z,8.09
2016-12-18T14:13:26.595Z,8.09
2016-12-18T14:14:26.608Z,8.12
2016-12-18T14:15:26.631Z,8.13
2016-12-18T14:16:26.648Z,8.08
2016-12-18T14:17:26.995Z,8
2016-12-18T14:18:26.674Z,8.12
2016-12-18T14:19:26.698Z,7.98
2016-12-18T14:20:26.714Z,7.88
2016-12-18T14:21:26.730Z,7.98
2016-12-18T14:22:26.750Z,8
2016-12-18T14:23:26.767Z,7.95
2016-12-18T14:24:26.786Z,7.83
2016-12-18T14:25:26.796Z,7.82
2016-12-18T14:26:26.827Z,7.8
2016-12-18T14:27:26.829Z,7.88
2016-12-18T14:28:26.852Z,7.83
2016-12-18T14:29:26.869Z,7.82
2016-12-18T14:30:26.885Z,7.8
2016-12-18T14:31:26.893Z,7.88
2016-12-18T14:32:26.925Z,7.8
2016-12-18T14:33:26.943Z,7.82
2016-12-18T14:34:26.951Z,7.7
2016-12-18T14:35:26.970Z,7.7
2016-12-18T14:36:26.985Z,7.61
2016-12-18T14:37:27.007Z,7.69
2016-12-18T14:38:27.025Z,7.63
2016-12-18T14:39:27.029Z,7.6
2016-12-18T14:40:27.067Z,7.61
2016-12-18T14:41:27.064Z,7.56
2016-12-18T14:42:27.083Z,7.6
2016-12-18T14:43:27.092Z,7.6
2016-12-18T14:44:27.119Z,7.57
2016-12-18T14:45:27.136Z,7.6
2016-12-18T14:46:27.144Z,7.54
2016-12-18T14:47:27.201Z,7.5
2016-12-18T14:48:27.215Z,7.56
2016-12-18T14:49:27.203Z,7.58
2016-12-18T14:50:27.215Z,7.51
2016-12-18T14:51:27.264Z,7.51
2016-12-18T14:52:27.289Z,7.56
2016-12-18T14:53:27.289Z,7.53
2016-12-18T14:54:27.326Z,7.54
2016-12-18T14:55:27.309Z,7.57
2016-12-18T14:56:27.308Z,7.48
2016-12-18T14:57:27.333Z,7.42
2016-12-18T14:58:27.350Z,7.54
2016-12-18T14:59:27.363Z,7.4
2016-12-18T15:00:27.372Z,7.5
2016-12-18T15:01:27.391Z,7.5
2016-12-18T15:02:27.414Z,7.5
2016-12-18T15:03:27.434Z,7.45
2016-12-18T15:04:27.439Z,7.42
2016-12-18T15:05:27.459Z,7.51
2016-12-18T15:06:27.487Z,7.43
2016-12-18T15:07:27.496Z,7.43
2016-12-18T15:08:27.507Z,7.53
2016-12-18T15:09:27.523Z,7.48
2016-12-18T15:10:27.553Z,7.47
2016-12-18T15:11:27.554Z,7.42
2016-12-18T15:12:27.572Z,7.4
2016-12-18T15:13:27.595Z,7.39
2016-12-18T15:14:27.610Z,7.35
2016-12-18T15:15:27.620Z,7.42
2016-12-18T15:16:27.643Z,7.4
2016-12-18T15:17:27.657Z,7.4
2016-12-18T15:18:27.674Z,7.36
2016-12-18T15:19:27.685Z,7.42
2016-12-18T15:20:27.706Z,7.31
2016-12-18T15:21:27.720Z,7.33
2016-12-18T15:22:27.733Z,7.36
2016-12-18T15:23:27.753Z,7.29
2016-12-18T15:24:27.758Z,7.43
2016-12-18T15:25:27.786Z,7.31
2016-12-18T15:26:27.804Z,7.31
2016-12-18T15:27:27.821Z,7.28
2016-12-18T15:28:27.836Z,7.35
2016-12-18T15:29:27.854Z,7.29
2016-12-18T15:30:27.869Z,7.29
2016-12-18T15:31:27.880Z,7.2
2016-12-18T15:32:27.899Z,7.23
2016-12-18T15:33:27.908Z,7.24
2016-12-18T15:34:27.930Z,7.17
2016-12-18T15:35:27.973Z,7.13
2016-12-18T15:36:27.963Z,7.23
2016-12-18T15:37:27.970Z,7.24
2016-12-18T15:38:27.983Z,7.15
2016-12-18T15:39:28.004Z,7.25
2016-12-18T15:40:28.017Z,7.15
2016-12-18T15:41:28.039Z,7.15
2016-12-18T15:42:28.062Z,7.14
2016-12-18T15:43:28.076Z,7.25
2016-12-18T15:44:28.084Z,7.29
2016-12-18T15:45:28.112Z,7.21
2016-12-18T15:46:28.120Z,7.29
2016-12-18T15:47:28.139Z,7.32
2016-12-18T15:48:28.155Z,7.28
2016-12-18T15:49:28.173Z,7.25
2016-12-18T15:50:28.185Z,7.25
2016-12-18T15:51:28.213Z,7.21
2016-12-18T15:52:28.219Z,7.29
2016-12-18T15:53:28.283Z,7.23
2016-12-18T15:54:28.285Z,7.29
2016-12-18T15:55:28.294Z,7.29
2016-12-18T15:56:28.292Z,7.23
2016-12-18T15:57:28.346Z,7.24
2016-12-18T15:58:28.308Z,7.18
2016-12-18T15:59:28.334Z,7.24
2016-12-18T16:00:28.358Z,7.23
2016-12-18T16:01:28.364Z,7.13
2016-12-18T16:02:28.389Z,7.13
2016-12-18T16:03:28.403Z,7.1
2016-12-18T16:04:28.416Z,7.1
2016-12-18T16:05:28.429Z,7.07
2016-12-18T16:06:28.438Z,7.05
2016-12-18T16:07:28.459Z,7.03
2016-12-18T16:08:28.477Z,7.05
2016-12-18T16:09:28.495Z,7.11
2016-12-18T16:10:28.512Z,6.99
2016-12-18T16:11:28.527Z,7.1
2016-12-18T16:12:28.539Z,7.1
2016-12-18T16:13:28.556Z,7.06
2016-12-18T16:14:28.568Z,7.03
2016-12-18T16:15:28.606Z,7.06
2016-12-18T16:16:28.609Z,7.03
2016-12-18T16:17:28.622Z,7.02
2016-12-18T16:18:28.642Z,7.13
2016-12-18T16:19:28.654Z,7.07
2016-12-18T16:20:28.679Z,7.11
2016-12-18T16:21:28.685Z,7.11
2016-12-18T16:22:28.703Z,7.05
2016-12-18T16:23:28.711Z,7.05
2016-12-18T16:24:28.736Z,7.1
2016-12-18T16:25:28.741Z,7.14
2016-12-18T16:26:28.779Z,7.07
2016-12-18T16:27:28.782Z,7.05
2016-12-18T16:28:28.806Z,7.06
2016-12-18T16:29:28.818Z,7.05
2016-12-18T16:30:28.835Z,7.07
2016-12-18T16:31:28.841Z,7.14
2016-12-18T16:32:28.867Z,7.07
2016-12-18T16:33:28.885Z,7.1
2016-12-18T16:34:28.892Z,7.05
2016-12-18T16:35:28.909Z,7.05
2016-12-18T16:36:28.924Z,7.07
2016-12-18T16:37:28.943Z,7.07
2016-12-18T16:38:28.967Z,7.02
2016-12-18T16:39:28.978Z,7.05
2016-12-18T16:40:28.995Z,7.02
2016-12-18T16:41:28.999Z,7
2016-12-18T16:42:29.027Z,7.1
2016-12-18T16:43:29.044Z,7.05
2016-12-18T16:44:29.057Z,7.05
2016-12-18T16:45:29.075Z,7.13
2016-12-18T16:46:29.097Z,7.02
2016-12-18T16:47:29.101Z,7.06
2016-12-18T16:48:29.117Z,6.97
2016-12-18T16:49:29.138Z,6.99
2016-12-18T16:50:29.150Z,6.97
2016-12-18T16:51:29.175Z,7.02
2016-12-18T16:52:29.180Z,7.02
2016-12-18T16:53:29.193Z,6.97
2016-12-18T16:54:29.221Z,7
2016-12-18T16:55:29.233Z,6.96
2016-12-18T16:56:29.246Z,6.93
2016-12-18T16:57:29.264Z,7.07
2016-12-18T16:58:29.284Z,6.95
2016-12-18T16:59:29.299Z,6.95
2016-12-18T17:00:29.347Z,7.03
2016-12-18T17:01:29.317Z,6.95
2016-12-18T17:02:29.346Z,6.93
2016-12-18T17:03:29.353Z,6.96
2016-12-18T17:04:29.380Z,6.93
2016-12-18T17:05:29.389Z,6.97
2016-12-18T17:06:29.412Z,7
2016-12-18T17:07:29.420Z,6.97
2016-12-18T17:08:29.444Z,7
2016-12-18T17:09:29.451Z,6.97
2016-12-18T17:10:29.467Z,6.97
2016-12-18T17:11:29.488Z,6.97
2016-12-18T17:12:29.504Z,7
2016-12-18T17:13:29.526Z,7
2016-12-18T17:14:29.538Z,6.92
2016-12-18T17:15:29.549Z,6.92
2016-12-18T17:16:29.560Z,6.92
2016-12-18T17:17:29.577Z,7.02
2016-12-18T17:18:29.607Z,6.88
2016-12-18T17:19:29.612Z,7.02
2016-12-18T17:20:29.629Z,6.88
2016-12-18T17:21:29.639Z,6.92
2016-12-18T17:22:29.661Z,6.96
2016-12-18T17:23:29.675Z,6.93
2016-12-18T17:24:29.694Z,6.88
2016-12-18T17:25:29.712Z,6.89
2016-12-18T17:26:29.721Z,6.97
2016-12-18T17:27:29.739Z,6.93
2016-12-18T17:28:29.751Z,6.85
2016-12-18T17:29:29.770Z,6.92
2016-12-18T17:30:29.822Z,6.89
2016-12-18T17:31:29.805Z,6.96
2016-12-18T17:32:29.821Z,6.96
2016-12-18T17:33:29.840Z,6.97
2016-12-18T17:34:29.874Z,6.96
2016-12-18T17:35:29.864Z,6.89
2016-12-18T17:36:29.879Z,6.96
2016-12-18T17:37:29.904Z,6.93
2016-12-18T17:38:29.916Z,6.96
2016-12-18T17:39:29.937Z,6.96
2016-12-18T17:40:29.954Z,6.95
2016-12-18T17:41:29.963Z,6.96
2016-12-18T17:42:29.986Z,6.89
2016-12-18T17:43:30.001Z,6.96
2016-12-18T17:44:30.039Z,6.95
2016-12-18T17:45:30.031Z,6.93
2016-12-18T17:46:30.040Z,6.95
2016-12-18T17:47:30.059Z,6.93
2016-12-18T17:48:30.078Z,6.89
2016-12-18T17:49:30.122Z,6.88
2016-12-18T17:50:30.115Z,6.92
2016-12-18T17:51:30.124Z,6.87
2016-12-18T17:52:30.145Z,6.85
2016-12-18T17:53:30.162Z,6.74
2016-12-18T17:54:30.173Z,6.84
2016-12-18T17:55:30.192Z,6.84
2016-12-18T17:56:30.217Z,6.77
2016-12-18T17:57:30.214Z,6.75
2016-12-18T17:58:30.238Z,6.84
2016-12-18T17:59:30.260Z,6.75
2016-12-18T18:00:30.269Z,6.84
2016-12-18T18:01:30.287Z,6.84
2016-12-18T18:02:30.334Z,6.81
2016-12-18T18:03:30.318Z,6.84
2016-12-18T18:04:30.330Z,6.82
2016-12-18T18:05:30.364Z,6.82
2016-12-18T18:06:30.355Z,6.74
2016-12-18T18:07:30.374Z,6.79
2016-12-18T18:08:30.404Z,6.82
2016-12-18T18:09:30.419Z,6.72
2016-12-18T18:10:30.426Z,6.84
2016-12-18T18:11:30.504Z,6.79
2016-12-18T18:12:30.507Z,6.7
2016-12-18T18:13:30.595Z,6.7
2016-12-18T18:14:30.509Z,6.87
2016-12-18T18:15:30.515Z,6.79
2016-12-18T18:16:30.520Z,6.89
2016-12-18T18:17:30.592Z,6.89
2016-12-18T18:18:30.630Z,6.82
2016-12-18T18:19:30.577Z,6.78
2016-12-18T18:20:30.630Z,6.81
2016-12-18T18:21:30.632Z,6.81
2016-12-18T18:22:30.670Z,6.82
2016-12-18T18:23:30.677Z,6.81
2016-12-18T18:24:30.696Z,6.82
2016-12-18T18:25:30.692Z,6.82
2016-12-18T18:26:30.678Z,6.82
2016-12-18T18:27:30.690Z,6.81
2016-12-18T18:28:30.716Z,6.79
2016-12-18T18:29:30.725Z,6.82
2016-12-18T18:30:30.750Z,6.85
2016-12-18T18:31:30.758Z,6.81
2016-12-18T18:32:30.772Z,6.85
2016-12-18T18:33:30.789Z,6.85
2016-12-18T18:34:30.806Z,6.79
2016-12-18T18:35:30.825Z,6.81
2016-12-18T18:36:30.837Z,6.74
2016-12-18T18:37:30.858Z,6.81
2016-12-18T18:38:30.874Z,6.82
2016-12-18T18:39:30.893Z,6.85
2016-12-18T18:40:30.914Z,6.81
2016-12-18T18:41:30.926Z,6.81
2016-12-18T18:42:30.935Z,6.81
2016-12-18T18:43:30.949Z,6.82
2016-12-18T18:44:30.964Z,6.79
2016-12-18T18:45:30.979Z,6.79
2016-12-18T18:46:31.004Z,6.78
2016-12-18T18:47:31.052Z,6.77
2016-12-18T18:48:31.030Z,6.82
2016-12-18T18:49:31.071Z,6.75
2016-12-18T18:50:31.060Z,6.67
2016-12-18T18:51:31.076Z,6.84
2016-12-18T18:52:31.090Z,6.79
2016-12-18T18:53:31.107Z,6.79
2016-12-18T18:54:31.128Z,6.7
2016-12-18T18:55:31.144Z,6.72
2016-12-18T18:56:31.159Z,6.72
2016-12-18T18:57:31.167Z,6.72
2016-12-18T18:58:31.187Z,6.66
2016-12-18T18:59:31.206Z,6.66
2016-12-18T19:00:31.252Z,6.67
2016-12-18T19:01:31.229Z,6.63
2016-12-18T19:02:31.255Z,6.63
2016-12-18T19:03:31.305Z,6.66
2016-12-18T19:04:31.283Z,6.72
2016-12-18T19:05:31.291Z,6.7
2016-12-18T19:06:31.350Z,6.69
2016-12-18T19:07:31.326Z,6.64
2016-12-18T19:08:31.346Z,6.7
2016-12-18T19:09:31.361Z,6.64
2016-12-18T19:10:31.373Z,6.69
2016-12-18T19:11:31.394Z,6.66
2016-12-18T19:12:31.414Z,6.7
2016-12-18T19:13:31.427Z,6.69
2016-12-18T19:14:31.442Z,6.67
2016-12-18T19:15:31.456Z,6.69
2016-12-18T19:16:31.479Z,6.63
2016-12-18T19:17:31.486Z,6.74
2016-12-18T19:18:31.510Z,6.72
2016-12-18T19:19:31.520Z,6.66
2016-12-18T19:20:31.543Z,6.69
2016-12-18T19:21:31.547Z,6.7
2016-12-18T19:22:31.570Z,6.69
2016-12-18T19:23:31.589Z,6.69
2016-12-18T19:24:31.593Z,6.69
2016-12-18T19:25:31.621Z,6.67
2016-12-18T19:26:31.630Z,6.69
2016-12-18T19:27:31.652Z,6.67
2016-12-18T19:28:31.670Z,6.63
2016-12-18T19:29:31.687Z,6.75
2016-12-18T19:30:31.726Z,6.67
2016-12-18T19:31:31.713Z,6.7
2016-12-18T19:32:31.759Z,6.66
2016-12-18T19:33:31.738Z,6.74
2016-12-18T19:34:31.796Z,6.74
2016-12-18T19:35:31.769Z,6.67
2016-12-18T19:36:31.829Z,6.66
2016-12-18T19:37:31.855Z,6.69
2016-12-18T19:38:31.888Z,6.67
2016-12-18T19:39:31.896Z,6.59
2016-12-18T19:40:31.854Z,6.59
2016-12-18T19:41:31.960Z,6.7
2016-12-18T19:42:31.917Z,6.66
2016-12-18T19:43:31.956Z,6.66
2016-12-18T19:44:32.102Z,6.69
2016-12-18T19:45:32.068Z,6.74
2016-12-18T19:46:32.058Z,6.69
2016-12-18T19:47:31.983Z,6.64
2016-12-18T19:48:32.138Z,6.66
2016-12-18T19:49:32.049Z,6.67
2016-12-18T19:50:32.182Z,6.67
2016-12-18T19:51:32.026Z,6.67
2016-12-18T19:52:32.089Z,6.74
2016-12-18T19:53:32.173Z,6.66
2016-12-18T19:54:32.072Z,6.66
2016-12-18T19:55:32.212Z,6.67
2016-12-18T19:56:32.210Z,6.69
2016-12-18T19:57:32.183Z,6.67
2016-12-18T19:58:32.140Z,6.7
2016-12-18T19:59:32.273Z,6.66
2016-12-18T20:00:32.199Z,6.7
2016-12-18T20:01:32.187Z,6.64
2016-12-18T20:02:32.318Z,6.74
2016-12-18T20:03:32.362Z,6.64
2016-12-18T20:04:32.336Z,6.59
2016-12-18T20:05:32.246Z,6.69
2016-12-18T20:06:32.390Z,6.69
2016-12-18T20:07:32.295Z,6.69
2016-12-18T20:08:32.441Z,6.67
2016-12-18T20:09:32.437Z,6.7
2016-12-18T20:10:32.335Z,6.7
2016-12-18T20:11:32.564Z,6.66
2016-12-18T20:12:32.414Z,6.63
2016-12-18T20:13:32.471Z,6.69
2016-12-18T20:14:32.472Z,6.7
2016-12-18T20:15:32.404Z,6.67
2016-12-18T20:16:32.703Z,6.69
2016-12-18T20:17:32.542Z,6.74
2016-12-18T20:18:32.691Z,6.67
2016-12-18T20:19:32.554Z,6.69
2016-12-18T20:20:32.481Z,6.72
2016-12-18T20:21:32.712Z,6.66
2016-12-18T20:22:32.551Z,6.72
2016-12-18T20:23:32.528Z,6.69
2016-12-18T20:24:32.616Z,6.64
2016-12-18T20:25:32.563Z,6.7
2016-12-18T20:26:32.585Z,6.66
2016-12-18T20:27:32.600Z,6.64
2016-12-18T20:28:32.608Z,6.69
2016-12-18T20:29:32.622Z,6.67
2016-12-18T20:30:32.704Z,6.67
2016-12-18T20:31:32.656Z,6.63
2016-12-18T20:32:32.676Z,6.59
2016-12-18T20:33:32.781Z,6.66
2016-12-18T20:34:32.783Z,6.66
2016-12-18T20:35:32.726Z,6.64
2016-12-18T20:36:32.824Z,6.72
2016-12-18T20:37:32.840Z,6.64
2016-12-18T20:38:32.768Z,6.7
2016-12-18T20:39:32.830Z,6.64
2016-12-18T20:40:32.990Z,6.66
2016-12-18T20:41:32.912Z,6.63
2016-12-18T20:42:32.941Z,6.63
2016-12-18T20:43:33.003Z,6.66
2016-12-18T20:44:32.929Z,6.69
2016-12-18T20:45:32.912Z,6.72
2016-12-18T20:46:32.892Z,6.67
2016-12-18T20:47:32.976Z,6.64
2016-12-18T20:48:33.026Z,6.7
2016-12-18T20:49:32.967Z,6.67
2016-12-18T20:50:32.996Z,6.74
2016-12-18T20:51:33.025Z,6.67
2016-12-18T20:52:33.081Z,6.66
2016-12-18T20:53:33.050Z,6.67
2016-12-18T20:54:33.087Z,6.66
2016-12-18T20:55:33.057Z,6.7
2016-12-18T20:56:33.075Z,6.63
2016-12-18T20:57:33.062Z,6.67
2016-12-18T20:58:33.090Z,6.69
2016-12-18T20:59:33.115Z,6.69
2016-12-18T21:00:33.122Z,6.72
2016-12-18T21:01:33.131Z,6.7
2016-12-18T21:02:33.140Z,6.69
2016-12-18T21:03:33.154Z,6.69
2016-12-18T21:04:33.174Z,6.67
2016-12-18T21:05:33.193Z,6.66
2016-12-18T21:06:33.208Z,6.66
2016-12-18T21:07:33.249Z,6.69
2016-12-18T21:08:33.243Z,6.66
2016-12-18T21:09:33.287Z,6.66
2016-12-18T21:10:33.315Z,6.69
2016-12-18T21:11:33.327Z,6.72
2016-12-18T21:12:33.309Z,6.64
2016-12-18T21:13:33.323Z,6.66
2016-12-18T21:14:33.374Z,6.72
2016-12-18T21:15:33.351Z,6.72
2016-12-18T21:16:33.370Z,6.69
2016-12-18T21:17:33.380Z,6.69
2016-12-18T21:18:33.397Z,6.64
2016-12-18T21:19:33.417Z,6.7
2016-12-18T21:20:33.434Z,6.66
2016-12-18T21:21:33.483Z,6.66
2016-12-18T21:22:33.467Z,6.66
2016-12-18T21:23:33.473Z,6.67
2016-12-18T21:24:33.503Z,6.63
2016-12-18T21:25:33.506Z,6.67
2016-12-18T21:26:33.512Z,6.69
2016-12-18T21:27:33.540Z,6.64
2016-12-18T21:28:33.558Z,6.67
2016-12-18T21:29:33.573Z,6.69
2016-12-18T21:30:33.590Z,6.64
2016-12-18T21:31:33.601Z,6.6
2016-12-18T21:32:33.619Z,6.63
2016-12-18T21:33:33.636Z,6.6
2016-12-18T21:34:33.660Z,6.62
2016-12-18T21:35:33.672Z,6.7
2016-12-18T21:36:33.683Z,6.63
2016-12-18T21:37:33.733Z,6.64
2016-12-18T21:38:33.718Z,6.62
2016-12-18T21:39:33.731Z,6.59
2016-12-18T21:40:33.744Z,6.64
2016-12-18T21:41:33.764Z,6.74
2016-12-18T21:42:33.778Z,6.74
2016-12-18T21:43:33.790Z,6.72
2016-12-18T21:44:33.812Z,6.7
2016-12-18T21:45:33.828Z,6.72
2016-12-18T21:46:33.842Z,6.74
2016-12-18T21:47:33.854Z,6.7
2016-12-18T21:48:33.866Z,6.69
2016-12-18T21:49:33.897Z,6.69
2016-12-18T21:50:33.916Z,6.72
2016-12-18T21:51:33.922Z,6.7
2016-12-18T21:52:33.939Z,6.72
2016-12-18T21:53:33.949Z,6.66
2016-12-18T21:54:33.964Z,6.67
2016-12-18T21:55:33.985Z,6.69
2016-12-18T21:56:34.006Z,6.72
2016-12-18T21:57:34.020Z,6.64
2016-12-18T21:58:34.035Z,6.75
2016-12-18T21:59:34.045Z,6.72
2016-12-18T22:00:34.072Z,6.66
2016-12-18T22:01:34.073Z,6.63
2016-12-18T22:02:34.094Z,6.74
2016-12-18T22:03:34.110Z,6.64
2016-12-18T22:04:34.122Z,6.62
2016-12-18T22:05:34.145Z,6.66
2016-12-18T22:06:34.161Z,6.64
2016-12-18T22:07:34.170Z,6.66
2016-12-18T22:08:34.190Z,6.66
2016-12-18T22:09:34.199Z,6.63
2016-12-18T22:10:34.222Z,6.7
2016-12-18T22:11:34.237Z,6.7
2016-12-18T22:12:34.251Z,6.7
2016-12-18T22:13:34.259Z,6.69
2016-12-18T22:14:34.281Z,6.63
2016-12-18T22:15:34.288Z,6.67
2016-12-18T22:16:34.320Z,6.7
2016-12-18T22:17:34.345Z,6.75
2016-12-18T22:18:34.337Z,6.69
2016-12-18T22:19:34.353Z,6.7
2016-12-18T22:20:34.391Z,6.64
2016-12-18T22:21:34.394Z,6.66
2016-12-18T22:22:34.407Z,6.69
2016-12-18T22:23:34.427Z,6.72
2016-12-18T22:24:34.453Z,6.64
2016-12-18T22:25:34.462Z,6.57
2016-12-18T22:26:34.477Z,6.59
2016-12-18T22:27:34.489Z,6.59
2016-12-18T22:28:34.505Z,6.6
2016-12-18T22:29:34.522Z,6.66
2016-12-18T22:30:34.537Z,6.62
2016-12-18T22:31:34.548Z,6.66
2016-12-18T22:32:34.568Z,6.59
2016-12-18T22:33:34.586Z,6.62
2016-12-18T22:34:34.606Z,6.63
2016-12-18T22:35:34.608Z,6.59
2016-12-18T22:36:34.640Z,6.63
2016-12-18T22:37:34.650Z,6.63
2016-12-18T22:38:34.666Z,6.64
2016-12-18T22:39:34.703Z,6.56
2016-12-18T22:40:34.696Z,6.62
2016-12-18T22:41:34.711Z,6.49
2016-12-18T22:42:34.726Z,6.62
2016-12-18T22:43:34.737Z,6.49
2016-12-18T22:44:34.765Z,6.46
2016-12-18T22:45:34.774Z,6.62
2016-12-18T22:46:34.798Z,6.48
2016-12-18T22:47:34.811Z,6.48
2016-12-18T22:48:34.812Z,6.6
2016-12-18T22:49:34.833Z,6.48
2016-12-18T22:50:34.852Z,6.52
2016-12-18T22:51:34.870Z,6.52
2016-12-18T22:52:34.890Z,6.52
2016-12-18T22:53:34.904Z,6.46
2016-12-18T22:54:34.917Z,6.52
2016-12-18T22:55:34.936Z,6.51
2016-12-18T22:56:34.943Z,6.49
2016-12-18T22:57:34.959Z,6.51
2016-12-18T22:58:34.975Z,6.48
2016-12-18T22:59:34.996Z,6.52
2016-12-18T23:00:35.007Z,6.45
2016-12-18T23:01:35.022Z,6.48
2016-12-18T23:02:35.037Z,6.52
2016-12-18T23:03:35.050Z,6.49
2016-12-18T23:04:35.071Z,6.49
2016-12-18T23:05:35.089Z,6.51
2016-12-18T23:06:35.106Z,6.49
2016-12-18T23:07:35.111Z,6.54
2016-12-18T23:08:35.133Z,6.46
2016-12-18T23:09:35.148Z,6.51